sensor_id;sensor_type;location;lat;lon;timestamp;temperature;humidity
83828;DHT22;74656;48.870;12.562;2024-02-16T00:00:33;8.50;73.80
83828;DHT22;74656;48.870;12.562;2024-02-16T00:03:35;8.50;74.00
83828;DHT22;74656;48.870;12.562;2024-02-16T00:06:38;8.60;73.80
83828;DHT22;74656;48.870;12.562;2024-02-16T00:09:40;8.60;73.70
83828;DHT22;74656;48.870;12.562;2024-02-16T00:12:42;8.60;73.90
83828;DHT22;74656;48.870;12.562;2024-02-16T00:15:44;8.60;74.10
83828;DHT22;74656;48.870;12.562;2024-02-16T00:18:46;8.60;73.70
83828;DHT22;74656;48.870;12.562;2024-02-16T00:21:50;8.50;73.60
83828;DHT22;74656;48.870;12.562;2024-02-16T00:24:52;8.60;73.50
83828;DHT22;74656;48.870;12.562;2024-02-16T00:27:54;8.50;73.40
83828;DHT22;74656;48.870;12.562;2024-02-16T00:30:56;8.50;73.30
83828;DHT22;74656;48.870;12.562;2024-02-16T00:33:58;8.40;73.20
83828;DHT22;74656;48.870;12.562;2024-02-16T00:37:01;8.40;73.40
83828;DHT22;74656;48.870;12.562;2024-02-16T00:40:04;8.30;73.30
83828;DHT22;74656;48.870;12.562;2024-02-16T00:43:06;8.30;73.40
83828;DHT22;74656;48.870;12.562;2024-02-16T00:46:08;8.30;73.40
83828;DHT22;74656;48.870;12.562;2024-02-16T00:49:11;8.30;73.60
83828;DHT22;74656;48.870;12.562;2024-02-16T00:52:13;8.30;73.60
83828;DHT22;74656;48.870;12.562;2024-02-16T00:55:15;8.20;73.40
83828;DHT22;74656;48.870;12.562;2024-02-16T00:58:17;8.10;73.20
83828;DHT22;74656;48.870;12.562;2024-02-16T01:01:20;8.10;73.30
83828;DHT22;74656;48.870;12.562;2024-02-16T01:04:22;8.10;73.40
83828;DHT22;74656;48.870;12.562;2024-02-16T01:07:24;8.10;73.40
83828;DHT22;74656;48.870;12.562;2024-02-16T01:10:26;8.10;73.40
83828;DHT22;74656;48.870;12.562;2024-02-16T01:13:28;8.10;73.40
83828;DHT22;74656;48.870;12.562;2024-02-16T01:16:30;8.10;73.50
83828;DHT22;74656;48.870;12.562;2024-02-16T01:19:32;8.10;73.40
83828;DHT22;74656;48.870;12.562;2024-02-16T01:22:34;8.20;74.40
83828;DHT22;74656;48.870;12.562;2024-02-16T01:25:36;8.20;74.40
83828;DHT22;74656;48.870;12.562;2024-02-16T01:28:38;8.20;74.10
83828;DHT22;74656;48.870;12.562;2024-02-16T01:31:40;8.20;74.00
83828;DHT22;74656;48.870;12.562;2024-02-16T01:34:42;8.20;73.80
83828;DHT22;74656;48.870;12.562;2024-02-16T01:37:44;8.10;73.60
83828;DHT22;74656;48.870;12.562;2024-02-16T01:40:46;8.10;73.50
83828;DHT22;74656;48.870;12.562;2024-02-16T01:43:48;8.10;73.70
83828;DHT22;74656;48.870;12.562;2024-02-16T01:46:50;8.10;74.10
83828;DHT22;74656;48.870;12.562;2024-02-16T01:49:52;8.20;74.20
83828;DHT22;74656;48.870;12.562;2024-02-16T01:52:54;8.20;74.00
83828;DHT22;74656;48.870;12.562;2024-02-16T01:55:57;8.20;73.70
83828;DHT22;74656;48.870;12.562;2024-02-16T01:58:59;8.20;73.50
83828;DHT22;74656;48.870;12.562;2024-02-16T02:02:01;8.10;73.60
83828;DHT22;74656;48.870;12.562;2024-02-16T02:05:04;8.10;73.60
83828;DHT22;74656;48.870;12.562;2024-02-16T02:08:10;8.00;73.50
83828;DHT22;74656;48.870;12.562;2024-02-16T02:11:12;8.00;73.50
83828;DHT22;74656;48.870;12.562;2024-02-16T02:14:14;8.00;73.60
83828;DHT22;74656;48.870;12.562;2024-02-16T02:17:17;7.90;73.50
83828;DHT22;74656;48.870;12.562;2024-02-16T02:20:19;7.90;73.60
83828;DHT22;74656;48.870;12.562;2024-02-16T02:23:21;8.00;73.80
83828;DHT22;74656;48.870;12.562;2024-02-16T02:26:24;8.00;73.80
83828;DHT22;74656;48.870;12.562;2024-02-16T02:29:26;8.00;73.60
83828;DHT22;74656;48.870;12.562;2024-02-16T02:32:28;7.90;73.50
83828;DHT22;74656;48.870;12.562;2024-02-16T02:35:31;7.90;73.60
83828;DHT22;74656;48.870;12.562;2024-02-16T02:38:33;7.90;74.20
83828;DHT22;74656;48.870;12.562;2024-02-16T02:41:35;7.90;73.70
83828;DHT22;74656;48.870;12.562;2024-02-16T02:44:37;7.80;73.80
83828;DHT22;74656;48.870;12.562;2024-02-16T02:47:39;7.80;73.60
83828;DHT22;74656;48.870;12.562;2024-02-16T02:50:41;7.80;73.60
83828;DHT22;74656;48.870;12.562;2024-02-16T02:53:44;7.80;73.60
83828;DHT22;74656;48.870;12.562;2024-02-16T02:56:46;7.80;73.60
83828;DHT22;74656;48.870;12.562;2024-02-16T02:59:49;7.80;73.80
83828;DHT22;74656;48.870;12.562;2024-02-16T03:02:51;7.80;73.80
83828;DHT22;74656;48.870;12.562;2024-02-16T03:05:53;7.80;73.70
83828;DHT22;74656;48.870;12.562;2024-02-16T03:08:55;7.80;73.70
83828;DHT22;74656;48.870;12.562;2024-02-16T03:11:57;7.80;74.00
83828;DHT22;74656;48.870;12.562;2024-02-16T03:15:00;7.90;74.00
83828;DHT22;74656;48.870;12.562;2024-02-16T03:18:02;7.90;74.10
83828;DHT22;74656;48.870;12.562;2024-02-16T03:21:05;7.90;74.10
83828;DHT22;74656;48.870;12.562;2024-02-16T03:24:07;7.90;74.30
83828;DHT22;74656;48.870;12.562;2024-02-16T03:27:09;8.00;74.50
83828;DHT22;74656;48.870;12.562;2024-02-16T03:30:12;8.00;74.30
83828;DHT22;74656;48.870;12.562;2024-02-16T03:33:14;8.00;74.20
83828;DHT22;74656;48.870;12.562;2024-02-16T03:36:16;8.00;74.30
83828;DHT22;74656;48.870;12.562;2024-02-16T03:39:19;8.00;74.20
83828;DHT22;74656;48.870;12.562;2024-02-16T03:42:21;8.00;74.20
83828;DHT22;74656;48.870;12.562;2024-02-16T03:45:24;8.00;74.20
83828;DHT22;74656;48.870;12.562;2024-02-16T03:48:26;8.00;74.20
83828;DHT22;74656;48.870;12.562;2024-02-16T03:51:28;8.00;74.20
83828;DHT22;74656;48.870;12.562;2024-02-16T03:54:30;8.00;74.20
83828;DHT22;74656;48.870;12.562;2024-02-16T03:57:32;8.00;74.10
83828;DHT22;74656;48.870;12.562;2024-02-16T04:00:34;7.90;74.00
83828;DHT22;74656;48.870;12.562;2024-02-16T04:03:37;7.90;74.00
83828;DHT22;74656;48.870;12.562;2024-02-16T04:06:39;7.90;74.00
83828;DHT22;74656;48.870;12.562;2024-02-16T04:09:42;7.90;74.00
83828;DHT22;74656;48.870;12.562;2024-02-16T04:12:44;7.90;74.10
83828;DHT22;74656;48.870;12.562;2024-02-16T04:15:47;7.90;74.10
83828;DHT22;74656;48.870;12.562;2024-02-16T04:18:52;8.00;74.30
83828;DHT22;74656;48.870;12.562;2024-02-16T04:21:55;8.00;74.50
83828;DHT22;74656;48.870;12.562;2024-02-16T04:25:01;8.00;74.70
83828;DHT22;74656;48.870;12.562;2024-02-16T04:28:03;8.10;74.70
83828;DHT22;74656;48.870;12.562;2024-02-16T04:31:05;8.20;74.90
83828;DHT22;74656;48.870;12.562;2024-02-16T04:34:08;8.20;75.10
83828;DHT22;74656;48.870;12.562;2024-02-16T04:37:10;8.30;75.30
83828;DHT22;74656;48.870;12.562;2024-02-16T04:40:12;8.30;75.30
83828;DHT22;74656;48.870;12.562;2024-02-16T04:43:15;8.40;75.30
83828;DHT22;74656;48.870;12.562;2024-02-16T04:46:17;8.30;75.20
83828;DHT22;74656;48.870;12.562;2024-02-16T04:49:19;8.30;75.00
83828;DHT22;74656;48.870;12.562;2024-02-16T04:52:22;8.30;74.90
83828;DHT22;74656;48.870;12.562;2024-02-16T04:55:27;8.40;74.90
83828;DHT22;74656;48.870;12.562;2024-02-16T04:58:29;8.40;74.80
83828;DHT22;74656;48.870;12.562;2024-02-16T05:01:31;8.40;74.70
83828;DHT22;74656;48.870;12.562;2024-02-16T05:04:33;8.40;74.50
83828;DHT22;74656;48.870;12.562;2024-02-16T05:07:35;8.40;74.50
83828;DHT22;74656;48.870;12.562;2024-02-16T05:10:37;8.40;74.40
83828;DHT22;74656;48.870;12.562;2024-02-16T05:13:39;8.40;74.30
83828;DHT22;74656;48.870;12.562;2024-02-16T05:16:46;8.40;74.30
83828;DHT22;74656;48.870;12.562;2024-02-16T05:19:48;8.40;74.20
83828;DHT22;74656;48.870;12.562;2024-02-16T05:22:50;8.40;74.30
83828;DHT22;74656;48.870;12.562;2024-02-16T05:25:53;8.40;74.20
83828;DHT22;74656;48.870;12.562;2024-02-16T05:28:55;8.40;74.20
83828;DHT22;74656;48.870;12.562;2024-02-16T05:31:57;8.40;74.20
83828;DHT22;74656;48.870;12.562;2024-02-16T05:34:59;8.40;74.20
83828;DHT22;74656;48.870;12.562;2024-02-16T05:38:01;8.40;74.10
83828;DHT22;74656;48.870;12.562;2024-02-16T05:41:03;8.40;74.20
83828;DHT22;74656;48.870;12.562;2024-02-16T05:44:05;8.40;74.20
83828;DHT22;74656;48.870;12.562;2024-02-16T05:47:07;8.40;74.20
83828;DHT22;74656;48.870;12.562;2024-02-16T05:50:09;8.40;74.10
83828;DHT22;74656;48.870;12.562;2024-02-16T05:53:11;8.40;74.20
83828;DHT22;74656;48.870;12.562;2024-02-16T05:56:12;8.40;74.20
83828;DHT22;74656;48.870;12.562;2024-02-16T05:59:15;8.40;74.30
83828;DHT22;74656;48.870;12.562;2024-02-16T06:02:17;8.40;74.30
83828;DHT22;74656;48.870;12.562;2024-02-16T06:05:19;8.40;74.20
83828;DHT22;74656;48.870;12.562;2024-02-16T06:08:21;8.40;74.10
83828;DHT22;74656;48.870;12.562;2024-02-16T06:11:23;8.40;74.20
83828;DHT22;74656;48.870;12.562;2024-02-16T06:14:25;8.40;74.30
83828;DHT22;74656;48.870;12.562;2024-02-16T06:17:26;8.40;74.20
83828;DHT22;74656;48.870;12.562;2024-02-16T06:20:29;8.40;74.30
83828;DHT22;74656;48.870;12.562;2024-02-16T06:23:31;8.40;74.30
83828;DHT22;74656;48.870;12.562;2024-02-16T06:26:33;8.40;74.30
83828;DHT22;74656;48.870;12.562;2024-02-16T06:29:35;8.40;74.40
83828;DHT22;74656;48.870;12.562;2024-02-16T06:32:37;8.50;74.60
83828;DHT22;74656;48.870;12.562;2024-02-16T06:35:39;8.50;74.50
83828;DHT22;74656;48.870;12.562;2024-02-16T06:38:41;8.50;74.50
83828;DHT22;74656;48.870;12.562;2024-02-16T06:41:44;8.60;74.70
83828;DHT22;74656;48.870;12.562;2024-02-16T06:44:47;8.70;74.80
83828;DHT22;74656;48.870;12.562;2024-02-16T06:47:49;8.70;75.00
83828;DHT22;74656;48.870;12.562;2024-02-16T06:50:51;8.80;75.20
83828;DHT22;74656;48.870;12.562;2024-02-16T06:53:53;8.80;75.40
83828;DHT22;74656;48.870;12.562;2024-02-16T06:56:55;9.00;75.70
83828;DHT22;74656;48.870;12.562;2024-02-16T06:59:58;9.10;75.90
83828;DHT22;74656;48.870;12.562;2024-02-16T07:03:00;9.20;76.00
83828;DHT22;74656;48.870;12.562;2024-02-16T07:06:02;9.40;75.70
83828;DHT22;74656;48.870;12.562;2024-02-16T07:09:05;9.50;75.40
83828;DHT22;74656;48.870;12.562;2024-02-16T07:12:07;9.60;75.30
83828;DHT22;74656;48.870;12.562;2024-02-16T07:15:09;9.70;75.00
83828;DHT22;74656;48.870;12.562;2024-02-16T07:18:11;9.80;75.20
83828;DHT22;74656;48.870;12.562;2024-02-16T07:21:13;9.80;75.50
83828;DHT22;74656;48.870;12.562;2024-02-16T07:24:15;9.90;74.80
83828;DHT22;74656;48.870;12.562;2024-02-16T07:27:17;10.10;74.80
83828;DHT22;74656;48.870;12.562;2024-02-16T07:30:20;10.10;74.00
83828;DHT22;74656;48.870;12.562;2024-02-16T07:33:34;10.20;73.30
83828;DHT22;74656;48.870;12.562;2024-02-16T07:36:37;10.40;73.90
83828;DHT22;74656;48.870;12.562;2024-02-16T07:39:39;10.60;73.70
83828;DHT22;74656;48.870;12.562;2024-02-16T07:42:41;10.70;72.20
83828;DHT22;74656;48.870;12.562;2024-02-16T07:45:43;10.80;73.60
83828;DHT22;74656;48.870;12.562;2024-02-16T07:48:46;11.10;72.20
83828;DHT22;74656;48.870;12.562;2024-02-16T07:51:48;11.20;70.70
83828;DHT22;74656;48.870;12.562;2024-02-16T07:54:50;11.20;70.40
83828;DHT22;74656;48.870;12.562;2024-02-16T07:57:52;11.30;70.20
83828;DHT22;74656;48.870;12.562;2024-02-16T08:00:54;11.50;71.20
83828;DHT22;74656;48.870;12.562;2024-02-16T08:03:57;11.50;71.20
83828;DHT22;74656;48.870;12.562;2024-02-16T08:07:02;11.60;71.30
83828;DHT22;74656;48.870;12.562;2024-02-16T08:10:04;11.40;69.40
83828;DHT22;74656;48.870;12.562;2024-02-16T08:13:06;11.60;69.20
83828;DHT22;74656;48.870;12.562;2024-02-16T08:16:08;11.50;68.60
83828;DHT22;74656;48.870;12.562;2024-02-16T08:19:10;11.70;71.10
83828;DHT22;74656;48.870;12.562;2024-02-16T08:22:12;11.90;70.60
83828;DHT22;74656;48.870;12.562;2024-02-16T08:25:14;11.70;67.80
83828;DHT22;74656;48.870;12.562;2024-02-16T08:28:16;11.70;69.10
83828;DHT22;74656;48.870;12.562;2024-02-16T08:31:18;11.70;68.20
83828;DHT22;74656;48.870;12.562;2024-02-16T08:34:20;11.80;66.60
83828;DHT22;74656;48.870;12.562;2024-02-16T08:37:23;11.90;67.50
83828;DHT22;74656;48.870;12.562;2024-02-16T08:40:25;11.80;66.60
83828;DHT22;74656;48.870;12.562;2024-02-16T08:43:27;11.90;67.90
83828;DHT22;74656;48.870;12.562;2024-02-16T08:46:29;12.10;66.20
83828;DHT22;74656;48.870;12.562;2024-02-16T08:49:31;12.10;65.70
83828;DHT22;74656;48.870;12.562;2024-02-16T08:52:33;12.20;65.10
83828;DHT22;74656;48.870;12.562;2024-02-16T08:55:36;12.30;64.90
83828;DHT22;74656;48.870;12.562;2024-02-16T08:58:38;12.60;65.40
83828;DHT22;74656;48.870;12.562;2024-02-16T09:01:40;12.80;63.80
83828;DHT22;74656;48.870;12.562;2024-02-16T09:04:42;13.20;63.60
83828;DHT22;74656;48.870;12.562;2024-02-16T09:07:45;13.40;62.10
83828;DHT22;74656;48.870;12.562;2024-02-16T09:10:47;13.50;60.90
83828;DHT22;74656;48.870;12.562;2024-02-16T09:13:49;13.40;60.80
83828;DHT22;74656;48.870;12.562;2024-02-16T09:16:52;13.60;61.50
83828;DHT22;74656;48.870;12.562;2024-02-16T09:19:54;13.60;60.70
83828;DHT22;74656;48.870;12.562;2024-02-16T09:22:56;13.60;60.40
83828;DHT22;74656;48.870;12.562;2024-02-16T09:25:58;13.40;61.40
83828;DHT22;74656;48.870;12.562;2024-02-16T09:29:01;13.60;61.40
83828;DHT22;74656;48.870;12.562;2024-02-16T09:32:04;13.70;60.70
83828;DHT22;74656;48.870;12.562;2024-02-16T09:35:06;13.80;60.10
83828;DHT22;74656;48.870;12.562;2024-02-16T09:38:08;13.70;60.00
83828;DHT22;74656;48.870;12.562;2024-02-16T09:41:10;13.80;60.00
83828;DHT22;74656;48.870;12.562;2024-02-16T09:44:13;13.80;60.10
83828;DHT22;74656;48.870;12.562;2024-02-16T09:47:16;14.00;59.80
83828;DHT22;74656;48.870;12.562;2024-02-16T09:50:18;14.40;59.00
83828;DHT22;74656;48.870;12.562;2024-02-16T09:53:20;14.60;58.70
83828;DHT22;74656;48.870;12.562;2024-02-16T09:56:22;14.90;58.80
83828;DHT22;74656;48.870;12.562;2024-02-16T09:59:25;14.80;57.70
83828;DHT22;74656;48.870;12.562;2024-02-16T10:02:27;14.90;57.50
83828;DHT22;74656;48.870;12.562;2024-02-16T10:05:29;14.90;57.40
83828;DHT22;74656;48.870;12.562;2024-02-16T10:08:31;15.10;57.60
83828;DHT22;74656;48.870;12.562;2024-02-16T10:11:35;15.10;56.80
83828;DHT22;74656;48.870;12.562;2024-02-16T10:14:36;15.40;57.20
83828;DHT22;74656;48.870;12.562;2024-02-16T10:17:38;15.60;56.30
83828;DHT22;74656;48.870;12.562;2024-02-16T10:20:41;15.80;55.30
83828;DHT22;74656;48.870;12.562;2024-02-16T10:24:02;16.00;55.00
83828;DHT22;74656;48.870;12.562;2024-02-16T10:27:04;16.20;54.70
83828;DHT22;74656;48.870;12.562;2024-02-16T10:30:07;16.30;54.90
83828;DHT22;74656;48.870;12.562;2024-02-16T10:33:09;16.60;54.40
83828;DHT22;74656;48.870;12.562;2024-02-16T10:36:12;17.10;52.60
83828;DHT22;74656;48.870;12.562;2024-02-16T10:39:16;17.90;50.40
83828;DHT22;74656;48.870;12.562;2024-02-16T10:42:19;19.30;47.80
83828;DHT22;74656;48.870;12.562;2024-02-16T10:45:22;20.90;44.40
83828;DHT22;74656;48.870;12.562;2024-02-16T10:48:24;22.30;41.90
83828;DHT22;74656;48.870;12.562;2024-02-16T10:51:47;22.90;39.90
83828;DHT22;74656;48.870;12.562;2024-02-16T10:54:50;22.60;40.10
83828;DHT22;74656;48.870;12.562;2024-02-16T10:57:53;23.30;39.30
83828;DHT22;74656;48.870;12.562;2024-02-16T11:00:57;24.80;37.70
83828;DHT22;74656;48.870;12.562;2024-02-16T11:04:01;25.50;35.50
83828;DHT22;74656;48.870;12.562;2024-02-16T11:07:19;25.70;35.20
83828;DHT22;74656;48.870;12.562;2024-02-16T11:10:22;25.70;34.40
83828;DHT22;74656;48.870;12.562;2024-02-16T11:13:28;26.10;34.00
83828;DHT22;74656;48.870;12.562;2024-02-16T11:16:30;26.50;33.20
83828;DHT22;74656;48.870;12.562;2024-02-16T11:19:32;26.90;32.90
83828;DHT22;74656;48.870;12.562;2024-02-16T11:22:37;27.10;31.80
83828;DHT22;74656;48.870;12.562;2024-02-16T11:25:38;28.30;30.60
83828;DHT22;74656;48.870;12.562;2024-02-16T11:28:41;27.70;30.20
83828;DHT22;74656;48.870;12.562;2024-02-16T11:31:44;26.70;31.90
83828;DHT22;74656;48.870;12.562;2024-02-16T11:34:46;27.40;31.90
83828;DHT22;74656;48.870;12.562;2024-02-16T11:37:49;28.50;29.10
83828;DHT22;74656;48.870;12.562;2024-02-16T11:40:59;27.80;31.20
83828;DHT22;74656;48.870;12.562;2024-02-16T11:44:02;27.20;31.60
83828;DHT22;74656;48.870;12.562;2024-02-16T11:47:04;28.30;30.80
83828;DHT22;74656;48.870;12.562;2024-02-16T11:50:09;27.40;31.10
83828;DHT22;74656;48.870;12.562;2024-02-16T11:53:17;27.10;31.30
83828;DHT22;74656;48.870;12.562;2024-02-16T11:56:24;28.40;29.90
83828;DHT22;74656;48.870;12.562;2024-02-16T11:59:26;28.30;29.30
83828;DHT22;74656;48.870;12.562;2024-02-16T12:02:28;26.20;32.20
83828;DHT22;74656;48.870;12.562;2024-02-16T12:05:30;27.30;31.90
83828;DHT22;74656;48.870;12.562;2024-02-16T12:08:34;27.20;31.90
83828;DHT22;74656;48.870;12.562;2024-02-16T12:11:36;25.80;32.40
83828;DHT22;74656;48.870;12.562;2024-02-16T12:14:38;26.30;32.50
83828;DHT22;74656;48.870;12.562;2024-02-16T12:17:40;25.60;33.50
83828;DHT22;74656;48.870;12.562;2024-02-16T12:20:43;27.10;32.60
83828;DHT22;74656;48.870;12.562;2024-02-16T12:23:45;27.80;31.20
83828;DHT22;74656;48.870;12.562;2024-02-16T12:26:47;26.80;31.80
83828;DHT22;74656;48.870;12.562;2024-02-16T12:29:50;26.60;31.70
83828;DHT22;74656;48.870;12.562;2024-02-16T12:32:52;26.00;32.90
83828;DHT22;74656;48.870;12.562;2024-02-16T12:35:54;25.70;33.80
83828;DHT22;74656;48.870;12.562;2024-02-16T12:38:57;26.00;34.20
83828;DHT22;74656;48.870;12.562;2024-02-16T12:41:59;26.50;32.30
83828;DHT22;74656;48.870;12.562;2024-02-16T12:45:02;26.10;32.50
83828;DHT22;74656;48.870;12.562;2024-02-16T12:48:04;26.80;32.80
83828;DHT22;74656;48.870;12.562;2024-02-16T12:51:06;28.00;30.40
83828;DHT22;74656;48.870;12.562;2024-02-16T12:54:08;27.80;31.20
83828;DHT22;74656;48.870;12.562;2024-02-16T12:57:12;28.40;29.70
83828;DHT22;74656;48.870;12.562;2024-02-16T13:00:16;28.40;30.30
83828;DHT22;74656;48.870;12.562;2024-02-16T13:03:18;29.00;29.50
83828;DHT22;74656;48.870;12.562;2024-02-16T13:06:20;31.20;27.00
83828;DHT22;74656;48.870;12.562;2024-02-16T13:09:29;31.20;26.60
83828;DHT22;74656;48.870;12.562;2024-02-16T13:12:31;31.70;25.60
83828;DHT22;74656;48.870;12.562;2024-02-16T13:15:33;30.50;26.60
83828;DHT22;74656;48.870;12.562;2024-02-16T13:18:35;29.60;27.80
83828;DHT22;74656;48.870;12.562;2024-02-16T13:21:37;27.10;30.30
83828;DHT22;74656;48.870;12.562;2024-02-16T13:24:39;25.60;33.00
83828;DHT22;74656;48.870;12.562;2024-02-16T13:27:42;24.30;34.80
83828;DHT22;74656;48.870;12.562;2024-02-16T13:30:44;23.80;35.40
83828;DHT22;74656;48.870;12.562;2024-02-16T13:33:46;22.70;38.30
83828;DHT22;74656;48.870;12.562;2024-02-16T13:36:48;21.90;40.20
83828;DHT22;74656;48.870;12.562;2024-02-16T13:39:50;21.60;41.60
83828;DHT22;74656;48.870;12.562;2024-02-16T13:43:11;21.90;40.80
83828;DHT22;74656;48.870;12.562;2024-02-16T13:46:13;21.10;42.00
83828;DHT22;74656;48.870;12.562;2024-02-16T13:49:14;21.00;41.90
83828;DHT22;74656;48.870;12.562;2024-02-16T13:52:17;20.90;42.80
83828;DHT22;74656;48.870;12.562;2024-02-16T13:55:18;20.70;43.40
83828;DHT22;74656;48.870;12.562;2024-02-16T13:58:20;20.50;44.50
83828;DHT22;74656;48.870;12.562;2024-02-16T14:01:22;20.40;44.50
83828;DHT22;74656;48.870;12.562;2024-02-16T14:04:25;20.20;44.60
83828;DHT22;74656;48.870;12.562;2024-02-16T14:07:27;20.40;44.20
83828;DHT22;74656;48.870;12.562;2024-02-16T14:10:29;19.90;45.10
83828;DHT22;74656;48.870;12.562;2024-02-16T14:13:30;19.90;45.10
83828;DHT22;74656;48.870;12.562;2024-02-16T14:16:33;19.70;45.30
83828;DHT22;74656;48.870;12.562;2024-02-16T14:19:34;19.40;46.50
83828;DHT22;74656;48.870;12.562;2024-02-16T14:22:36;19.30;46.90
83828;DHT22;74656;48.870;12.562;2024-02-16T14:25:38;19.20;47.40
83828;DHT22;74656;48.870;12.562;2024-02-16T14:28:40;19.00;48.00
83828;DHT22;74656;48.870;12.562;2024-02-16T14:31:42;19.00;47.90
83828;DHT22;74656;48.870;12.562;2024-02-16T14:34:44;19.00;47.70
83828;DHT22;74656;48.870;12.562;2024-02-16T14:37:46;18.90;48.10
83828;DHT22;74656;48.870;12.562;2024-02-16T14:40:48;18.70;48.70
83828;DHT22;74656;48.870;12.562;2024-02-16T14:43:50;19.00;48.50
83828;DHT22;74656;48.870;12.562;2024-02-16T14:46:52;18.70;48.80
83828;DHT22;74656;48.870;12.562;2024-02-16T14:49:53;18.60;49.40
83828;DHT22;74656;48.870;12.562;2024-02-16T14:52:56;18.90;49.00
83828;DHT22;74656;48.870;12.562;2024-02-16T14:55:58;18.70;49.40
83828;DHT22;74656;48.870;12.562;2024-02-16T14:59:00;18.90;49.20
83828;DHT22;74656;48.870;12.562;2024-02-16T15:02:02;18.90;48.80
83828;DHT22;74656;48.870;12.562;2024-02-16T15:05:07;18.70;48.90
83828;DHT22;74656;48.870;12.562;2024-02-16T15:08:09;18.70;48.90
83828;DHT22;74656;48.870;12.562;2024-02-16T15:11:11;18.40;49.90
83828;DHT22;74656;48.870;12.562;2024-02-16T15:14:12;18.60;50.00
83828;DHT22;74656;48.870;12.562;2024-02-16T15:17:19;18.30;50.50
83828;DHT22;74656;48.870;12.562;2024-02-16T15:20:20;18.60;49.70
83828;DHT22;74656;48.870;12.562;2024-02-16T15:23:22;18.40;50.30
83828;DHT22;74656;48.870;12.562;2024-02-16T15:26:24;18.20;51.10
83828;DHT22;74656;48.870;12.562;2024-02-16T15:29:27;18.10;51.60
83828;DHT22;74656;48.870;12.562;2024-02-16T15:32:29;18.00;51.80
83828;DHT22;74656;48.870;12.562;2024-02-16T15:35:31;18.00;52.40
83828;DHT22;74656;48.870;12.562;2024-02-16T15:38:32;17.90;52.90
83828;DHT22;74656;48.870;12.562;2024-02-16T15:41:34;17.80;53.00
83828;DHT22;74656;48.870;12.562;2024-02-16T15:44:36;17.70;53.30
83828;DHT22;74656;48.870;12.562;2024-02-16T15:47:38;17.70;53.50
83828;DHT22;74656;48.870;12.562;2024-02-16T15:50:40;17.60;54.00
83828;DHT22;74656;48.870;12.562;2024-02-16T15:53:41;17.60;53.90
83828;DHT22;74656;48.870;12.562;2024-02-16T15:56:43;17.50;54.60
83828;DHT22;74656;48.870;12.562;2024-02-16T15:59:46;17.30;55.20
83828;DHT22;74656;48.870;12.562;2024-02-16T16:02:48;17.20;55.90
83828;DHT22;74656;48.870;12.562;2024-02-16T16:05:50;17.10;56.40
83828;DHT22;74656;48.870;12.562;2024-02-16T16:08:52;17.00;56.80
83828;DHT22;74656;48.870;12.562;2024-02-16T16:11:54;16.80;57.20
83828;DHT22;74656;48.870;12.562;2024-02-16T16:14:56;16.70;57.70
83828;DHT22;74656;48.870;12.562;2024-02-16T16:17:58;16.60;57.60
83828;DHT22;74656;48.870;12.562;2024-02-16T16:21:00;16.50;58.10
83828;DHT22;74656;48.870;12.562;2024-02-16T16:24:02;16.50;58.30
83828;DHT22;74656;48.870;12.562;2024-02-16T16:27:04;16.40;58.60
83828;DHT22;74656;48.870;12.562;2024-02-16T16:30:07;16.30;58.80
83828;DHT22;74656;48.870;12.562;2024-02-16T16:33:08;16.30;58.90
83828;DHT22;74656;48.870;12.562;2024-02-16T16:36:10;16.20;59.10
83828;DHT22;74656;48.870;12.562;2024-02-16T16:39:12;16.10;59.00
83828;DHT22;74656;48.870;12.562;2024-02-16T16:42:14;16.00;59.50
83828;DHT22;74656;48.870;12.562;2024-02-16T16:45:16;16.00;59.50
83828;DHT22;74656;48.870;12.562;2024-02-16T16:48:18;16.00;61.10
83828;DHT22;74656;48.870;12.562;2024-02-16T16:51:20;16.00;60.20
83828;DHT22;74656;48.870;12.562;2024-02-16T16:54:22;16.00;59.70
83828;DHT22;74656;48.870;12.562;2024-02-16T16:57:24;16.00;59.90
83828;DHT22;74656;48.870;12.562;2024-02-16T17:00:26;15.90;59.60
83828;DHT22;74656;48.870;12.562;2024-02-16T17:03:27;15.80;60.60
83828;DHT22;74656;48.870;12.562;2024-02-16T17:06:30;15.90;61.30
83828;DHT22;74656;48.870;12.562;2024-02-16T17:09:31;16.00;60.70
83828;DHT22;74656;48.870;12.562;2024-02-16T17:12:33;16.00;59.60
83828;DHT22;74656;48.870;12.562;2024-02-16T17:15:35;15.90;59.40
83828;DHT22;74656;48.870;12.562;2024-02-16T17:18:37;15.80;59.40
83828;DHT22;74656;48.870;12.562;2024-02-16T17:21:40;15.70;59.70
83828;DHT22;74656;48.870;12.562;2024-02-16T17:24:42;15.70;59.90
83828;DHT22;74656;48.870;12.562;2024-02-16T17:27:43;15.60;59.80
83828;DHT22;74656;48.870;12.562;2024-02-16T17:30:46;15.50;59.90
83828;DHT22;74656;48.870;12.562;2024-02-16T17:33:47;15.40;60.30
83828;DHT22;74656;48.870;12.562;2024-02-16T17:36:50;15.40;60.40
83828;DHT22;74656;48.870;12.562;2024-02-16T17:39:51;15.30;60.60
83828;DHT22;74656;48.870;12.562;2024-02-16T17:42:53;15.20;60.70
83828;DHT22;74656;48.870;12.562;2024-02-16T17:45:56;15.20;60.80
83828;DHT22;74656;48.870;12.562;2024-02-16T17:48:58;15.20;60.80
83828;DHT22;74656;48.870;12.562;2024-02-16T17:52:00;15.10;61.10
83828;DHT22;74656;48.870;12.562;2024-02-16T17:55:02;15.00;61.40
83828;DHT22;74656;48.870;12.562;2024-02-16T17:58:08;15.00;61.60
83828;DHT22;74656;48.870;12.562;2024-02-16T18:01:11;14.90;61.80
83828;DHT22;74656;48.870;12.562;2024-02-16T18:04:13;14.80;62.20
83828;DHT22;74656;48.870;12.562;2024-02-16T18:07:15;14.80;62.30
83828;DHT22;74656;48.870;12.562;2024-02-16T18:10:17;14.80;62.20
83828;DHT22;74656;48.870;12.562;2024-02-16T18:13:19;14.70;62.60
83828;DHT22;74656;48.870;12.562;2024-02-16T18:16:21;14.60;62.90
83828;DHT22;74656;48.870;12.562;2024-02-16T18:19:23;14.60;62.80
83828;DHT22;74656;48.870;12.562;2024-02-16T18:22:25;14.60;63.00
83828;DHT22;74656;48.870;12.562;2024-02-16T18:25:27;14.50;63.20
83828;DHT22;74656;48.870;12.562;2024-02-16T18:28:28;14.40;63.80
83828;DHT22;74656;48.870;12.562;2024-02-16T18:31:42;14.30;64.00
83828;DHT22;74656;48.870;12.562;2024-02-16T18:34:44;14.20;63.90
83828;DHT22;74656;48.870;12.562;2024-02-16T18:37:46;14.20;64.50
83828;DHT22;74656;48.870;12.562;2024-02-16T18:40:48;14.20;64.80
83828;DHT22;74656;48.870;12.562;2024-02-16T18:43:50;14.10;65.00
83828;DHT22;74656;48.870;12.562;2024-02-16T18:46:51;14.00;65.30
83828;DHT22;74656;48.870;12.562;2024-02-16T18:49:54;13.90;65.90
83828;DHT22;74656;48.870;12.562;2024-02-16T18:52:56;13.70;66.70
83828;DHT22;74656;48.870;12.562;2024-02-16T18:55:58;13.60;67.20
83828;DHT22;74656;48.870;12.562;2024-02-16T18:59:00;13.50;67.40
83828;DHT22;74656;48.870;12.562;2024-02-16T19:02:01;13.40;67.70